Buena Vista, Colorado
Current Conditions -  °F | °C
As of 1:35 AM on Sunday 21 Dec 2014 (Local Time) from KAEJ Reporting Station
Clear Clear  
Wind Chill: 26°   Ceiling: Unl
Heat Index: 32°   Visibility: 10mi
Dew Point: 15°   Wind: 7mph
Humidity: 49%   Direction: 290°WNW
Pressure: 29.95"   Gusts: 17mph
Location:  38.84°N, 106.13°W
Report Text: KAEJ 210835Z AUTO 29006G15KT 10SM CLR 00/M09 A2995 RMK AO2 T00001095
Loading
Personal Weather Stations






























Interactive Weather Map New forecast layout! Learn more

10-Day Weather Forecast

Advertisements
Track Severe Weather on mobile